createdAt,value
2023-03-31T00:03:44.478Z,65938.22
2023-03-31T00:08:52.536Z,65894.38
2023-03-31T00:13:56.943Z,65916.81
2023-03-31T00:19:02.119Z,65937.31
2023-03-31T00:24:08.977Z,65931.25
2023-03-31T00:29:14.682Z,65972.44
2023-03-31T00:34:18.825Z,65967.66
2023-03-31T00:39:25.590Z,65925.81
2023-03-31T00:44:33.562Z,65908.19
2023-03-31T00:49:41.309Z,65940.81
2023-03-31T00:54:50.634Z,65916.19
2023-03-31T01:00:00.415Z,65962.19
2023-03-31T01:05:04.890Z,65916.63
2023-03-31T01:10:12.083Z,65887.31
2023-03-31T01:15:16.453Z,65936.72
2023-03-31T01:20:34.100Z,65942.41
2023-03-31T01:26:10.382Z,65963.47
2023-03-31T01:31:51.014Z,65971.38
2023-03-31T01:37:28.605Z,65915.31
2023-03-31T01:42:38.429Z,65950.00
2023-03-31T01:47:48.482Z,65914.78
2023-03-31T01:53:02.051Z,65985.13
2023-03-31T01:58:16.040Z,65978.88
2023-03-31T02:03:24.028Z,65976.75
2023-03-31T02:08:33.737Z,65968.19
2023-03-31T02:13:44.650Z,65955.25
2023-03-31T02:18:53.110Z,65953.47
2023-03-31T02:23:58.781Z,65929.56
2023-03-31T02:29:04.700Z,65958.72
2023-03-31T02:34:08.785Z,65980.50
2023-03-31T02:39:16.977Z,65996.09
2023-03-31T02:44:22.906Z,65927.81
2023-03-31T02:49:29.937Z,65951.50
2023-03-31T02:55:08.092Z,65913.50
2023-03-31T03:00:25.716Z,65898.03
2023-03-31T03:05:37.487Z,65905.06
2023-03-31T03:11:08.017Z,65890.97
2023-03-31T03:16:19.678Z,65915.22
2023-03-31T03:21:23.916Z,65949.44
2023-03-31T03:26:28.876Z,65921.72
2023-03-31T03:31:34.914Z,65989.41
2023-03-31T03:36:39.126Z,65983.69
2023-03-31T03:41:43.463Z,65900.78
2023-03-31T03:46:49.102Z,66002.50
2023-03-31T03:51:53.352Z,65953.63
2023-03-31T03:56:57.523Z,65940.34
2023-03-31T04:02:03.342Z,65953.03
2023-03-31T04:07:07.720Z,65941.97
2023-03-31T04:12:12.053Z,65922.63
2023-03-31T04:17:17.631Z,65895.00
2023-03-31T04:22:21.733Z,65999.84
2023-03-31T04:27:27.303Z,66063.03
2023-03-31T04:32:36.739Z,66038.09
2023-03-31T04:37:43.268Z,66089.88
2023-03-31T04:42:48.125Z,66065.88
2023-03-31T04:47:53.747Z,66085.50
2023-03-31T04:52:57.940Z,66055.81
2023-03-31T04:58:02.821Z,65992.25
2023-03-31T05:03:09.932Z,66049.56
2023-03-31T05:08:14.098Z,66037.56
2023-03-31T05:13:18.253Z,66004.84
2023-03-31T05:18:23.755Z,66050.63
2023-03-31T05:23:28.050Z,66080.16
2023-03-31T05:28:32.605Z,66056.06
2023-03-31T05:33:41.474Z,66063.47
2023-03-31T05:38:46.083Z,66116.50
2023-03-31T05:43:50.314Z,66137.22
2023-03-31T05:48:56.606Z,66130.50
2023-03-31T05:54:00.766Z,66211.97
2023-03-31T05:59:05.463Z,66165.59
2023-03-31T06:04:11.435Z,66165.25
2023-03-31T06:09:15.696Z,66221.97
2023-03-31T06:14:19.943Z,66296.06
2023-03-31T06:19:25.563Z,66302.50
2023-03-31T06:24:29.727Z,66233.31
2023-03-31T06:29:33.837Z,66177.03
2023-03-31T06:34:39.483Z,66188.28
2023-03-31T06:39:44.686Z,66214.00
2023-03-31T06:44:48.828Z,66228.56
2023-03-31T06:49:54.406Z,66265.75
2023-03-31T06:54:58.563Z,66266.75
2023-03-31T07:00:02.696Z,66285.88
2023-03-31T07:05:09.226Z,66259.88
2023-03-31T07:10:13.852Z,66230.19
2023-03-31T07:15:19.001Z,66296.06
2023-03-31T07:20:28.162Z,66314.94
2023-03-31T07:25:32.076Z,66355.63
2023-03-31T07:30:36.834Z,66295.63
2023-03-31T07:35:43.274Z,66371.09
2023-03-31T07:40:53.123Z,66391.75
2023-03-31T07:46:07.831Z,66435.03
2023-03-31T07:51:14.015Z,66363.16
2023-03-31T07:56:18.428Z,66413.69
2023-03-31T08:01:26.195Z,66435.63
2023-03-31T08:06:32.118Z,66372.97
2023-03-31T08:11:36.857Z,66381.41
2023-03-31T08:16:41.491Z,66374.94
2023-03-31T08:21:47.221Z,66476.06
2023-03-31T08:26:51.380Z,66503.47
2023-03-31T08:31:56.328Z,66517.28
2023-03-31T08:37:03.716Z,66480.91
2023-03-31T08:42:16.089Z,66433.94
2023-03-31T08:47:24.599Z,66545.28
2023-03-31T08:52:34.789Z,66576.94
2023-03-31T08:57:54.487Z,66628.47
2023-03-31T09:03:07.198Z,66571.03
2023-03-31T09:08:21.011Z,66586.69
2023-03-31T09:13:56.899Z,66638.22
2023-03-31T09:19:02.729Z,66579.63
2023-03-31T09:24:09.639Z,66580.09
2023-03-31T09:29:19.368Z,66573.72
2023-03-31T09:34:28.533Z,66625.94
2023-03-31T09:39:34.170Z,66626.84
2023-03-31T09:44:39.371Z,66622.72
2023-03-31T09:49:53.852Z,66609.28
2023-03-31T09:55:03.864Z,66654.34
2023-03-31T10:00:17.851Z,66695.88
2023-03-31T10:05:33.768Z,66687.78
2023-03-31T10:10:39.957Z,66608.03
2023-03-31T10:15:44.861Z,66693.19
2023-03-31T10:20:52.808Z,66728.69
2023-03-31T10:25:58.734Z,66801.34
2023-03-31T10:31:04.502Z,66889.63
2023-03-31T10:36:23.766Z,67001.25
2023-03-31T10:41:31.454Z,66887.06
2023-03-31T10:46:44.333Z,66918.31
2023-03-31T10:51:54.511Z,66843.88
2023-03-31T10:57:03.755Z,66849.88
2023-03-31T11:02:37.185Z,66745.75
2023-03-31T11:07:52.114Z,66819.06
2023-03-31T11:13:03.553Z,66740.31
2023-03-31T11:18:37.723Z,66756.19
2023-03-31T11:23:44.191Z,66813.75
2023-03-31T11:29:04.700Z,66786.34
2023-03-31T11:34:44.622Z,66834.19
2023-03-31T11:40:03.073Z,66760.34
2023-03-31T11:45:17.114Z,66724.91
2023-03-31T11:50:24.337Z,66763.50
2023-03-31T11:55:31.826Z,66731.75
2023-03-31T12:00:42.438Z,66751.84
2023-03-31T12:05:51.116Z,66832.50
2023-03-31T12:11:01.734Z,66859.50
2023-03-31T12:16:14.323Z,66798.66
2023-03-31T12:21:19.259Z,66725.38
2023-03-31T12:26:37.091Z,66678.47
2023-03-31T12:31:45.451Z,66745.91
2023-03-31T12:37:06.630Z,66767.97
2023-03-31T12:42:46.269Z,66856.19
2023-03-31T12:48:07.464Z,66985.59
2023-03-31T12:53:22.942Z,66897.75
2023-03-31T12:58:54.252Z,66763.03
2023-03-31T13:04:22.206Z,66694.72
2023-03-31T13:09:52.321Z,66681.34
2023-03-31T13:20:35.987Z,66781.41
2023-03-31T13:25:46.317Z,66722.69
2023-03-31T13:31:02.047Z,66696.94
2023-03-31T13:36:46.102Z,66695.88
2023-03-31T13:41:58.800Z,66776.59
2023-03-31T13:47:34.359Z,66686.81
2023-03-31T13:52:48.557Z,66782.97
2023-03-31T13:58:36.360Z,66699.00
2023-03-31T14:03:56.323Z,66664.13
2023-03-31T14:09:06.726Z,66670.56
2023-03-31T14:14:15.652Z,66691.03
2023-03-31T14:19:52.313Z,66646.91
2023-03-31T14:25:09.245Z,66710.16
2023-03-31T14:30:24.868Z,66731.28
2023-03-31T14:35:38.644Z,66739.91
2023-03-31T14:40:49.062Z,66633.38
2023-03-31T14:46:00.432Z,66587.22
2023-03-31T14:51:10.794Z,66536.09
2023-03-31T14:56:22.189Z,66657.13
2023-03-31T15:01:34.535Z,66810.50
2023-03-31T15:06:40.071Z,66867.50
2023-03-31T15:11:45.816Z,66861.59
2023-03-31T15:16:51.400Z,66676.56
2023-03-31T15:21:57.439Z,66592.59
2023-03-31T15:27:06.054Z,66524.78
2023-03-31T15:32:16.460Z,66596.38
2023-03-31T15:37:27.926Z,66476.44
2023-03-31T15:42:35.780Z,66522.03
2023-03-31T15:47:52.760Z,66491.47
2023-03-31T15:52:58.965Z,66497.94
2023-03-31T15:58:04.761Z,66500.53
2023-03-31T16:03:17.722Z,66423.44
2023-03-31T16:08:26.715Z,66458.19
2023-03-31T16:13:33.959Z,66466.41
2023-03-31T16:18:42.129Z,66457.72
2023-03-31T16:23:54.857Z,66364.75
2023-03-31T16:29:04.229Z,66350.44
2023-03-31T16:34:12.761Z,66269.53
2023-03-31T16:39:16.936Z,66311.56
2023-03-31T16:44:22.677Z,66321.28
2023-03-31T16:49:27.424Z,66287.50
2023-03-31T16:54:32.099Z,66296.72
2023-03-31T16:59:38.047Z,66289.28
2023-03-31T17:04:42.894Z,66262.81
2023-03-31T17:09:47.490Z,66283.13
2023-03-31T17:14:53.069Z,66316.44
2023-03-31T17:19:57.590Z,66419.06
2023-03-31T17:25:01.780Z,66326.28
2023-03-31T17:30:09.813Z,66385.75
2023-03-31T17:35:20.597Z,66347.13
2023-03-31T17:40:28.316Z,66331.09
2023-03-31T17:45:34.896Z,66342.22
2023-03-31T17:50:39.450Z,66370.75
2023-03-31T17:55:46.180Z,66366.34
2023-03-31T18:00:52.229Z,66300.81
2023-03-31T18:05:56.442Z,66338.38
2023-03-31T18:11:00.815Z,66252.19
2023-03-31T18:16:09.697Z,66295.63
2023-03-31T18:21:14.831Z,66305.19
2023-03-31T18:26:19.476Z,66298.31
2023-03-31T18:31:27.038Z,66339.44
2023-03-31T18:36:32.476Z,66355.09
2023-03-31T18:41:37.502Z,66324.88
2023-03-31T18:46:43.497Z,66328.88
2023-03-31T18:51:47.585Z,66399.63
2023-03-31T18:56:55.384Z,66329.50
2023-03-31T19:02:01.084Z,66367.88
2023-03-31T19:07:05.394Z,66365.81
2023-03-31T19:12:09.601Z,66312.78
2023-03-31T19:17:15.239Z,66328.34
2023-03-31T19:22:19.438Z,66257.03
2023-03-31T19:27:23.881Z,66299.38
2023-03-31T19:32:29.672Z,66342.22
2023-03-31T19:37:33.906Z,66254.78
2023-03-31T19:42:38.724Z,66263.47
2023-03-31T19:47:44.288Z,66303.22
2023-03-31T19:52:49.969Z,66242.88
2023-03-31T19:57:58.107Z,66237.16
2023-03-31T20:03:07.135Z,66291.25
2023-03-31T20:08:11.662Z,66313.25
2023-03-31T20:13:15.918Z,66331.03
2023-03-31T20:18:21.495Z,66329.97
2023-03-31T20:23:25.624Z,66273.00
2023-03-31T20:28:30.216Z,66272.56
2023-03-31T20:33:36.424Z,66257.09
2023-03-31T20:38:41.754Z,66303.06
2023-03-31T20:43:46.463Z,66291.34
2023-03-31T20:48:55.081Z,66280.16
2023-03-31T20:54:01.467Z,66286.97
2023-03-31T20:59:08.175Z,66297.69
2023-03-31T21:04:17.026Z,66252.63
2023-03-31T21:09:21.374Z,66261.75
2023-03-31T21:14:25.464Z,66250.94
2023-03-31T21:19:31.930Z,66237.69
2023-03-31T21:24:36.377Z,66304.56
2023-03-31T21:29:40.542Z,66247.38
2023-03-31T21:34:46.224Z,66267.75
2023-03-31T21:39:50.410Z,66242.00
2023-03-31T21:44:58.938Z,66253.16
2023-03-31T21:50:04.628Z,66271.03
2023-03-31T21:55:09.536Z,66239.41
2023-03-31T22:00:15.858Z,66306.78
2023-03-31T22:05:21.886Z,66315.91
2023-03-31T22:10:26.050Z,66318.63
2023-03-31T22:15:30.786Z,66410.91
2023-03-31T22:20:36.992Z,66394.88
2023-03-31T22:25:41.239Z,66301.00
2023-03-31T22:30:45.520Z,66355.69
2023-03-31T22:35:51.132Z,66337.91
2023-03-31T22:40:55.514Z,66369.56
2023-03-31T22:46:03.907Z,66453.91
2023-03-31T22:51:12.072Z,66410.03
2023-03-31T22:56:16.357Z,66372.81
2023-03-31T23:01:22.605Z,66424.34
2023-03-31T23:06:29.214Z,66408.97
2023-03-31T23:11:33.408Z,66332.72
2023-03-31T23:16:37.601Z,66297.25
2023-03-31T23:21:43.229Z,66299.31
2023-03-31T23:26:47.560Z,66369.22
2023-03-31T23:31:51.829Z,66312.09
2023-03-31T23:36:57.328Z,66264.97
2023-03-31T23:42:01.522Z,66218.31
2023-03-31T23:47:05.942Z,66341.75
2023-03-31T23:52:11.460Z,66260.88
2023-03-31T23:57:15.548Z,66231.78
